RJTE(METAR)
12/16 16:00
METAR RJTE 160700Z 22018G31KT 190V270 9999 FEW030 BKN070 13/04 Q1009
RMK 1CU030 7AC070 A2982=
戻る
トップページへ戻る
IMOC Co,.Ltd.